Terminal Aerodrome Forecast
Issued by NWS Sterling, VA

Current Version | Previous Version | Text Only | Print | Product List | Glossary Off
Versions: 1 2 3 4 5 6 7 8 9 10 11 12 13 14 15 16 17 18 19 20 21

000
FTUS41 KLWX 161440 AAA
TAFDCA
TAF AMD
KDCA 161440Z 1615/1712 33010G21KT P6SM BKN120
     FM161800 33013G23KT P6SM SCT060
     FM170000 34009KT P6SM FEW250
     FM170700 35005KT P6SM SKC=

USA.gov is the U.S. government's official web portal to all federal, state and local government web resources and services.